Flight Track Log - Related Links

Times and Time Zones

All times are in EDT time to prevent confusion due to time zone crossing. See the N32169 flight status page for this flight to view local times or setup timezone preferences in your user account.

Time Position Orientation Groundspeed Altitude Reporting Facility
EDT Latitude Longitude Course Direction KTS MPH feet Rate Location/Type
Sat 12:38:00 PM 34.0000 -118.4833 284° West 80 92 1,300  Level Southern California TRACON
Sat 12:42:06 PM 34.0167 -118.5667 360° North 81 93 4,000 538 Climbing Southern California TRACON
Sat 12:43:01 PM 34.0500 -118.5667 320° Northwest 100 115 4,000  Level Southern California TRACON
Sat 12:44:06 PM 34.0667 -118.5833 360° North 106 122 4,000  Level Southern California TRACON
Sat 12:45:07 PM 34.1000 -118.5833 338° Northwest 105 121 4,000  Level Southern California TRACON
Sat 12:46:07 PM 34.1333 -118.6000 320° Northwest 104 120 4,000  Level Southern California TRACON
Sat 12:47:07 PM 34.1500 -118.6167 301° West 112 129 4,000 50 Level Southern California TRACON
Sat 12:48:07 PM 34.1667 -118.6500 301° West 109 125 4,100  Climbing Southern California TRACON
Sat 12:49:07 PM 34.1833 -118.6833 253° West 112 129 4,000 -100 Descending Southern California TRACON
Sat 12:56:32 PM 34.1255 -118.9110 285° West  Level FlightAware Approximate
Sat 12:57:32 PM 34.1333 -118.9466 285° West  Level FlightAware Approximate
Sat 12:58:32 PM 34.1411 -118.9822 285° West  Level FlightAware Approximate
Sat 12:59:32 PM 34.1488 -119.0179 285° West  Level FlightAware Approximate
Sat 01:00:32 PM 34.1566 -119.0535 285° West  Level FlightAware Approximate
Sat 01:01:32 PM 34.1643 -119.0892 290° West  Level FlightAware Approximate
Sat 01:02:32 PM 34.1746 -119.1238 291° West  Level FlightAware Approximate
Sat 01:03:32 PM 34.1854 -119.1583 293° West  Level Estimated
Sat 01:04:32 PM 34.2000 -119.2000 278° West  Level FlightAware Approximate
Sat 01:05:32 PM 34.2041 -119.2365 98° East  Level Estimated
Sat 01:06:32 PM 34.2000 -119.2000 278° West  Level FlightAware Approximate
Sat 01:07:32 PM 34.2041 -119.2365 98° East  Level Estimated
Sat 01:08:32 PM 34.2000 -119.2000 278° West  Level FlightAware Approximate
Sat 01:09:32 PM 34.2041 -119.2365 278° West  Level Estimated

Login

Don't have an account? Register now (free) for customized features, flight alerts, and more!